createdAt,value
2019-01-24T00:01:05.513Z,39.17
2019-01-24T00:03:34.798Z,35.80
2019-01-24T00:06:04.083Z,38.37
2019-01-24T00:08:33.423Z,38.37
2019-01-24T00:11:03.093Z,39.40
2019-01-24T00:13:32.757Z,36.93
2019-01-24T00:16:02.378Z,35.93
2019-01-24T00:18:32.081Z,38.80
2019-01-24T00:21:01.905Z,37.43
2019-01-24T00:23:31.471Z,36.03
2019-01-24T00:26:01.199Z,39.80
2019-01-24T00:28:31.131Z,40.17
2019-01-24T00:31:00.504Z,39.80
2019-01-24T00:33:29.700Z,37.30
2019-01-24T00:35:59.244Z,39.13
2019-01-24T00:38:28.529Z,38.77
2019-01-24T00:40:57.834Z,38.43
2019-01-24T00:43:27.669Z,38.33
2019-01-24T00:45:57.429Z,37.73
2019-01-24T00:48:27.098Z,38.60
2019-01-24T00:50:56.381Z,40.00
2019-01-24T00:53:26.059Z,39.90
2019-01-24T00:55:56.328Z,41.70
2019-01-24T00:58:25.595Z,41.07
2019-01-24T01:00:55.125Z,39.33
2019-01-24T01:03:24.470Z,38.17
2019-01-24T01:05:53.665Z,39.27
2019-01-24T01:08:22.958Z,37.17
2019-01-24T01:10:52.173Z,38.00
2019-01-24T01:13:21.856Z,37.43
2019-01-24T01:15:51.261Z,36.27
2019-01-24T01:18:20.948Z,34.60
2019-01-24T01:20:50.574Z,36.20
2019-01-24T01:23:20.310Z,36.20
2019-01-24T01:25:49.990Z,34.17
2019-01-24T01:28:19.702Z,36.47
2019-01-24T01:30:49.315Z,37.73
2019-01-24T01:33:18.993Z,36.87
2019-01-24T01:35:48.380Z,34.80
2019-01-24T01:38:17.770Z,31.73
2019-01-24T01:40:47.123Z,36.07
2019-01-24T01:43:16.472Z,34.73
2019-01-24T01:45:45.777Z,34.07
2019-01-24T01:48:15.360Z,35.70
2019-01-24T01:50:48.035Z,35.90
2019-01-24T01:53:17.286Z,34.73
2019-01-24T01:55:46.664Z,32.30
2019-01-24T01:58:15.968Z,35.93
2019-01-24T02:00:45.549Z,36.77
2019-01-24T02:03:14.904Z,34.17
2019-01-24T02:05:44.269Z,35.83
2019-01-24T02:08:13.923Z,35.57
2019-01-24T02:10:53.305Z,36.67
2019-01-24T02:13:30.082Z,36.43
2019-01-24T02:15:59.447Z,36.03
2019-01-24T02:18:29.093Z,37.77
2019-01-24T02:20:58.435Z,35.63
2019-01-24T02:23:27.725Z,34.53
2019-01-24T02:25:57.127Z,35.40
2019-01-24T02:28:26.537Z,36.23
2019-01-24T02:30:55.917Z,37.30
2019-01-24T02:33:25.229Z,30.40
2019-01-24T02:35:54.597Z,34.87
2019-01-24T02:38:23.815Z,35.63
2019-01-24T02:40:53.230Z,35.17
2019-01-24T02:43:22.942Z,32.53
2019-01-24T02:45:52.228Z,34.77
2019-01-24T02:48:21.630Z,35.80
2019-01-24T02:50:51.649Z,33.13
2019-01-24T02:53:21.368Z,35.83
2019-01-24T02:55:50.778Z,32.93
2019-01-24T02:58:20.129Z,32.30
2019-01-24T03:00:49.781Z,34.07
2019-01-24T03:03:19.539Z,34.13
2019-01-24T03:05:49.147Z,34.73
2019-01-24T03:08:18.604Z,32.90
2019-01-24T03:10:47.871Z,34.00
2019-01-24T03:13:17.575Z,35.37
2019-01-24T03:15:47.209Z,32.77
2019-01-24T03:18:16.845Z,33.67
2019-01-24T03:20:50.484Z,35.07
2019-01-24T03:23:19.828Z,34.80
2019-01-24T03:25:49.566Z,33.70
2019-01-24T03:28:18.893Z,33.67
2019-01-24T03:30:48.292Z,33.33
2019-01-24T03:33:17.663Z,34.87
2019-01-24T03:35:46.934Z,32.80
2019-01-24T03:38:16.354Z,34.07
2019-01-24T03:40:46.027Z,33.60
2019-01-24T03:43:15.325Z,31.23
2019-01-24T03:45:44.644Z,33.10
2019-01-24T03:48:13.924Z,32.63
2019-01-24T03:50:43.110Z,33.50
2019-01-24T03:53:12.798Z,34.67
2019-01-24T03:55:42.198Z,34.33
2019-01-24T03:58:11.638Z,34.97
2019-01-24T04:00:40.972Z,34.03
2019-01-24T04:03:12.152Z,34.80
2019-01-24T04:05:41.554Z,34.33
2019-01-24T04:08:20.052Z,35.50
2019-01-24T04:10:49.308Z,34.67
2019-01-24T04:13:19.016Z,35.00
2019-01-24T04:15:48.590Z,34.83
2019-01-24T04:18:18.710Z,32.37
2019-01-24T04:20:48.601Z,30.50
2019-01-24T04:23:17.902Z,33.63
2019-01-24T04:25:47.538Z,34.70
2019-01-24T04:28:16.932Z,32.83
2019-01-24T04:30:46.202Z,34.77
2019-01-24T04:33:15.856Z,35.07
2019-01-24T04:35:45.242Z,32.10
2019-01-24T04:38:14.998Z,34.67
2019-01-24T04:40:44.357Z,34.63
2019-01-24T04:43:16.420Z,34.23
2019-01-24T04:45:45.721Z,34.00
2019-01-24T04:48:15.086Z,34.83
2019-01-24T04:50:44.418Z,35.27
2019-01-24T04:53:14.066Z,37.67
2019-01-24T04:55:43.420Z,35.93
2019-01-24T04:58:12.754Z,35.37
2019-01-24T05:00:42.122Z,34.20
2019-01-24T05:03:11.343Z,36.70
2019-01-24T05:05:40.664Z,35.20
2019-01-24T05:08:10.021Z,34.93
2019-01-24T05:10:39.318Z,36.23
2019-01-24T05:13:08.654Z,35.33
2019-01-24T05:15:38.381Z,35.07
2019-01-24T05:18:07.726Z,33.70
2019-01-24T05:20:37.395Z,35.37
2019-01-24T05:23:09.538Z,34.60
2019-01-24T05:25:39.109Z,34.57
2019-01-24T05:28:08.434Z,34.50
2019-01-24T05:30:37.812Z,37.33
2019-01-24T05:33:10.469Z,36.00
2019-01-24T05:35:39.871Z,33.93
2019-01-24T05:38:09.097Z,31.77
2019-01-24T05:40:38.416Z,35.40
2019-01-24T05:43:07.785Z,34.93
2019-01-24T05:45:37.091Z,33.87
2019-01-24T05:48:06.972Z,35.37
2019-01-24T05:50:36.357Z,32.03
2019-01-24T05:53:05.713Z,32.37
2019-01-24T05:55:35.002Z,32.20
2019-01-24T05:58:04.330Z,30.97
2019-01-24T06:00:39.079Z,30.93
2019-01-24T06:03:08.785Z,31.67
2019-01-24T06:05:41.863Z,30.20
2019-01-24T06:08:11.360Z,29.37
2019-01-24T06:10:40.583Z,28.53
2019-01-24T06:13:09.962Z,27.63
2019-01-24T06:15:39.251Z,29.70
2019-01-24T06:18:18.289Z,29.07
2019-01-24T06:20:47.712Z,29.63
2019-01-24T06:23:17.093Z,30.07
2019-01-24T06:25:46.417Z,31.27
2019-01-24T06:28:15.936Z,32.43
2019-01-24T06:30:45.328Z,31.73
2019-01-24T06:33:15.104Z,31.27
2019-01-24T06:35:48.661Z,32.07
2019-01-24T06:38:15.620Z,33.43
2019-01-24T06:40:45.353Z,33.57
2019-01-24T06:43:14.745Z,33.00
2019-01-24T06:45:44.112Z,33.00
2019-01-24T06:48:13.486Z,32.60
2019-01-24T06:50:42.877Z,33.77
2019-01-24T06:53:12.396Z,35.47
2019-01-24T06:55:41.768Z,35.20
2019-01-24T06:58:11.105Z,34.23
2019-01-24T07:00:43.045Z,34.77
2019-01-24T07:03:13.348Z,33.53
2019-01-24T07:05:42.598Z,34.13
2019-01-24T07:08:11.974Z,34.47
2019-01-24T07:10:41.332Z,34.50
2019-01-24T07:13:10.718Z,33.27
2019-01-24T07:15:40.090Z,31.83
2019-01-24T07:18:09.593Z,33.47
2019-01-24T07:20:38.904Z,33.93
2019-01-24T07:23:08.883Z,33.13
2019-01-24T07:25:38.450Z,33.73
2019-01-24T07:28:08.317Z,32.97
2019-01-24T07:30:38.208Z,33.93
2019-01-24T07:33:09.061Z,33.77
2019-01-24T07:35:38.378Z,33.40
2019-01-24T07:38:08.169Z,33.93
2019-01-24T07:40:37.456Z,33.53
2019-01-24T07:43:07.102Z,32.83
2019-01-24T07:45:40.834Z,34.27
2019-01-24T07:48:13.687Z,32.93
2019-01-24T07:50:42.936Z,33.70
2019-01-24T07:53:12.457Z,35.70
2019-01-24T07:55:42.527Z,35.73
2019-01-24T07:58:12.052Z,33.27
2019-01-24T08:00:41.435Z,35.03
2019-01-24T08:03:10.922Z,34.70
2019-01-24T08:05:40.518Z,34.80
2019-01-24T08:08:09.818Z,34.83
2019-01-24T08:10:39.198Z,32.63
2019-01-24T08:13:08.782Z,33.30
2019-01-24T08:15:38.352Z,34.30
2019-01-24T08:18:07.952Z,29.80
2019-01-24T08:20:37.624Z,32.37
2019-01-24T08:23:07.053Z,32.80
2019-01-24T08:25:36.812Z,31.63
2019-01-24T08:28:06.206Z,33.50
2019-01-24T08:30:35.570Z,33.07
2019-01-24T08:33:05.149Z,31.97
2019-01-24T08:35:34.377Z,30.10
2019-01-24T08:38:03.769Z,32.33
2019-01-24T08:40:33.447Z,31.00
2019-01-24T08:43:03.044Z,31.07
2019-01-24T08:45:32.330Z,31.10
2019-01-24T08:48:01.717Z,32.53
2019-01-24T08:50:31.084Z,31.73
2019-01-24T08:53:00.453Z,32.60
2019-01-24T08:55:35.745Z,32.17
2019-01-24T08:58:06.230Z,32.17
2019-01-24T09:00:35.619Z,31.03
2019-01-24T09:03:05.625Z,31.80
2019-01-24T09:05:35.185Z,33.80
2019-01-24T09:08:05.218Z,31.33
2019-01-24T09:10:36.445Z,31.83
2019-01-24T09:13:06.914Z,31.70
2019-01-24T09:15:36.946Z,30.70
2019-01-24T09:18:07.785Z,31.60
2019-01-24T09:20:37.181Z,31.93
2019-01-24T09:23:07.369Z,32.20
2019-01-24T09:25:36.809Z,33.00
2019-01-24T09:28:06.165Z,29.70
2019-01-24T09:30:35.956Z,32.10
2019-01-24T09:33:05.389Z,29.67
2019-01-24T09:35:35.014Z,33.17
2019-01-24T09:38:04.522Z,32.83
2019-01-24T09:40:34.457Z,33.10
2019-01-24T09:43:04.375Z,32.73
2019-01-24T09:45:33.757Z,32.47
2019-01-24T09:48:04.779Z,34.83
2019-01-24T09:50:34.083Z,33.20
2019-01-24T09:53:03.477Z,33.27
2019-01-24T09:55:33.220Z,32.73
2019-01-24T09:58:02.606Z,33.97
2019-01-24T10:00:33.998Z,32.17
2019-01-24T10:03:03.860Z,32.23
2019-01-24T10:05:33.641Z,32.00
2019-01-24T10:08:03.828Z,32.73
2019-01-24T10:10:33.285Z,33.50
2019-01-24T10:13:02.710Z,34.03
2019-01-24T10:15:32.409Z,32.83
2019-01-24T10:18:02.118Z,33.60
2019-01-24T10:20:31.514Z,34.53
2019-01-24T10:23:01.280Z,33.30
2019-01-24T10:25:38.567Z,32.47
2019-01-24T10:28:08.992Z,33.13
2019-01-24T10:30:42.696Z,32.93
2019-01-24T10:33:09.465Z,33.60
2019-01-24T10:35:38.904Z,31.90
2019-01-24T10:38:08.333Z,30.77
2019-01-24T10:40:37.692Z,29.27
2019-01-24T10:43:07.434Z,28.90
2019-01-24T10:45:37.288Z,29.90
2019-01-24T10:48:07.425Z,28.60
2019-01-24T10:50:36.950Z,31.20
2019-01-24T10:53:06.876Z,31.03
2019-01-24T10:55:36.376Z,30.13
2019-01-24T10:58:06.962Z,30.27
2019-01-24T11:00:41.482Z,29.63
2019-01-24T11:03:16.038Z,29.67
2019-01-24T11:05:45.541Z,31.00
2019-01-24T11:08:15.333Z,31.27
2019-01-24T11:10:44.632Z,32.80
2019-01-24T11:13:14.516Z,31.73
2019-01-24T11:15:44.036Z,32.73
2019-01-24T11:18:13.729Z,31.70
2019-01-24T11:20:42.984Z,32.63
2019-01-24T11:23:12.359Z,34.83
2019-01-24T11:25:41.724Z,32.13
2019-01-24T11:28:11.136Z,31.93
2019-01-24T11:30:40.561Z,33.20
2019-01-24T11:33:10.274Z,32.90
2019-01-24T11:35:40.996Z,34.03
2019-01-24T11:38:10.632Z,34.47
2019-01-24T11:40:39.982Z,33.43
2019-01-24T11:43:09.591Z,32.57
2019-01-24T11:45:41.416Z,34.43
2019-01-24T11:48:10.745Z,35.27
2019-01-24T11:50:40.483Z,34.00
2019-01-24T11:53:09.944Z,33.30
2019-01-24T11:55:39.149Z,34.90
2019-01-24T11:58:09.128Z,32.40
2019-01-24T12:01:05.356Z,32.53
2019-01-24T12:03:34.725Z,32.90
2019-01-24T12:06:04.101Z,34.97
2019-01-24T12:08:33.501Z,34.13
2019-01-24T12:11:02.781Z,35.07
2019-01-24T12:13:32.128Z,34.30
2019-01-24T12:16:01.413Z,35.23
2019-01-24T12:18:31.155Z,34.33
2019-01-24T12:21:00.499Z,35.43
2019-01-24T12:23:29.787Z,33.70
2019-01-24T12:25:59.374Z,35.30
2019-01-24T12:28:29.268Z,35.40
2019-01-24T12:30:58.953Z,32.50
2019-01-24T12:33:28.615Z,35.77
2019-01-24T12:35:57.911Z,33.73
2019-01-24T12:38:27.309Z,31.90
2019-01-24T12:40:57.053Z,32.93
2019-01-24T12:43:26.409Z,31.83
2019-01-24T12:45:56.364Z,32.87
2019-01-24T12:48:25.894Z,34.70
2019-01-24T12:50:55.849Z,32.47
2019-01-24T12:53:25.145Z,32.67
2019-01-24T12:55:54.677Z,30.83
2019-01-24T12:58:24.330Z,30.73
2019-01-24T13:00:53.918Z,31.70
2019-01-24T13:03:23.329Z,31.97
2019-01-24T13:05:53.070Z,32.67
2019-01-24T13:08:22.469Z,32.73
2019-01-24T13:10:52.334Z,34.10
2019-01-24T13:13:22.037Z,31.47
2019-01-24T13:15:51.852Z,32.33
2019-01-24T13:18:23.916Z,32.37
2019-01-24T13:20:53.303Z,33.17
2019-01-24T13:23:23.223Z,32.73
2019-01-24T13:25:52.866Z,34.10
2019-01-24T13:28:22.178Z,33.27
2019-01-24T13:30:51.563Z,32.77
2019-01-24T13:33:20.995Z,33.80
2019-01-24T13:35:50.370Z,32.87
2019-01-24T13:38:19.734Z,32.80
2019-01-24T13:40:48.990Z,33.20
2019-01-24T13:43:18.531Z,34.40
2019-01-24T13:45:51.474Z,34.43
2019-01-24T13:48:21.271Z,34.07
2019-01-24T13:50:53.175Z,32.73
2019-01-24T13:53:22.944Z,36.10
2019-01-24T13:55:54.292Z,34.00
2019-01-24T13:58:23.766Z,33.43
2019-01-24T14:00:53.506Z,32.77
2019-01-24T14:03:27.857Z,33.40
2019-01-24T14:05:57.678Z,33.33
2019-01-24T14:08:27.242Z,33.13
2019-01-24T14:10:57.987Z,33.33
2019-01-24T14:13:27.518Z,34.67
2019-01-24T14:15:57.191Z,32.90
2019-01-24T14:18:26.560Z,34.03
2019-01-24T14:20:59.282Z,35.17
2019-01-24T14:23:28.642Z,34.57
2019-01-24T14:25:57.959Z,34.07
2019-01-24T14:28:28.249Z,34.67
2019-01-24T14:30:57.587Z,34.87
2019-01-24T14:33:29.502Z,33.03
2019-01-24T14:35:58.986Z,33.77
2019-01-24T14:38:28.795Z,33.10
2019-01-24T14:40:58.326Z,32.20
2019-01-24T14:43:27.712Z,33.53
2019-01-24T14:45:57.485Z,33.37
2019-01-24T14:48:26.822Z,33.40
2019-01-24T14:50:56.197Z,34.70
2019-01-24T14:53:25.582Z,35.30
2019-01-24T14:55:55.354Z,34.77
2019-01-24T14:58:24.786Z,37.30
2019-01-24T15:01:19.056Z,37.57
2019-01-24T15:03:48.710Z,34.60
2019-01-24T15:06:18.541Z,35.70
2019-01-24T15:08:47.949Z,34.67
2019-01-24T15:11:20.598Z,33.10
2019-01-24T15:13:52.548Z,35.17
2019-01-24T15:16:21.965Z,36.17
2019-01-24T15:18:54.725Z,35.60
2019-01-24T15:21:24.234Z,33.57
2019-01-24T15:23:54.917Z,32.70
2019-01-24T15:26:24.207Z,34.03
2019-01-24T15:28:53.584Z,34.40
2019-01-24T15:31:22.961Z,35.43
2019-01-24T15:33:52.975Z,35.10
2019-01-24T15:36:22.418Z,34.63
2019-01-24T15:38:51.853Z,34.63
2019-01-24T15:41:21.201Z,35.10
2019-01-24T15:43:50.523Z,36.43
2019-01-24T15:46:19.942Z,36.53
2019-01-24T15:48:49.306Z,34.30
2019-01-24T15:51:19.145Z,35.63
2019-01-24T15:53:48.579Z,36.43
2019-01-24T15:56:18.252Z,35.17
2019-01-24T15:58:48.016Z,36.17
2019-01-24T16:01:17.599Z,35.73
2019-01-24T16:03:47.233Z,36.57
2019-01-24T16:06:16.515Z,35.97
2019-01-24T16:08:46.452Z,37.93
2019-01-24T16:11:16.097Z,34.93
2019-01-24T16:13:45.747Z,35.20
2019-01-24T16:16:15.551Z,37.47
2019-01-24T16:18:44.920Z,36.17
2019-01-24T16:21:14.502Z,36.97
2019-01-24T16:23:43.872Z,37.63
2019-01-24T16:26:13.567Z,37.27
2019-01-24T16:28:43.098Z,36.93
2019-01-24T16:31:12.583Z,37.63
2019-01-24T16:33:42.603Z,37.07
2019-01-24T16:36:11.944Z,36.17
2019-01-24T16:38:41.517Z,38.03
2019-01-24T16:41:11.198Z,36.57
2019-01-24T16:43:40.859Z,38.07
2019-01-24T16:46:10.772Z,36.97
2019-01-24T16:48:40.079Z,35.97
2019-01-24T16:51:10.228Z,36.40
2019-01-24T16:53:42.006Z,35.33
2019-01-24T16:56:11.041Z,37.70
2019-01-24T16:58:40.718Z,36.60
2019-01-24T17:01:19.550Z,35.73
2019-01-24T17:03:49.043Z,35.30
2019-01-24T17:06:18.467Z,38.03
2019-01-24T17:08:48.806Z,38.43
2019-01-24T17:11:18.117Z,37.87
2019-01-24T17:14:06.701Z,35.70
2019-01-24T17:17:15.502Z,35.67
2019-01-24T17:19:45.155Z,36.93
2019-01-24T17:22:17.167Z,39.27
2019-01-24T17:24:46.824Z,40.80
2019-01-24T17:27:19.251Z,43.07
2019-01-24T17:29:48.536Z,41.63
2019-01-24T17:32:17.926Z,38.60
2019-01-24T17:34:47.223Z,41.77
2019-01-24T17:37:16.649Z,38.47
2019-01-24T17:39:46.468Z,38.03
2019-01-24T17:42:15.792Z,38.23
2019-01-24T17:44:45.071Z,37.90
2019-01-24T17:47:16.842Z,36.97
2019-01-24T17:49:46.512Z,36.87
2019-01-24T17:52:15.960Z,37.37
2019-01-24T17:54:45.556Z,38.63
2019-01-24T17:57:14.951Z,37.90
2019-01-24T17:59:44.588Z,38.07
2019-01-24T18:02:14.230Z,39.10
2019-01-24T18:04:43.814Z,37.47
2019-01-24T18:07:13.577Z,38.60
2019-01-24T18:09:42.879Z,38.67
2019-01-24T18:12:12.834Z,40.83
2019-01-24T18:14:44.776Z,41.10
2019-01-24T18:17:14.076Z,38.00
2019-01-24T18:19:43.486Z,41.07
2019-01-24T18:22:13.284Z,44.67
2019-01-24T18:24:42.594Z,43.80
2019-01-24T18:27:11.912Z,42.20
2019-01-24T18:29:42.806Z,41.83
2019-01-24T18:32:12.159Z,41.63
2019-01-24T18:34:41.549Z,42.77
2019-01-24T18:37:10.812Z,40.90
2019-01-24T18:39:40.166Z,39.97
2019-01-24T18:42:09.920Z,42.40
2019-01-24T18:44:39.760Z,44.73
2019-01-24T18:47:09.117Z,41.73
2019-01-24T18:49:39.023Z,45.47
2019-01-24T18:52:08.293Z,44.23
2019-01-24T18:54:40.026Z,44.73
2019-01-24T18:57:08.816Z,44.47
2019-01-24T18:59:38.147Z,43.97
2019-01-24T19:02:08.051Z,45.50
2019-01-24T19:04:37.365Z,47.80
2019-01-24T19:07:06.638Z,48.77
2019-01-24T19:09:36.253Z,46.57
2019-01-24T19:12:08.375Z,45.20
2019-01-24T19:14:37.724Z,46.33
2019-01-24T19:17:06.948Z,48.53
2019-01-24T19:19:36.337Z,49.57
2019-01-24T19:22:05.779Z,48.17
2019-01-24T19:24:35.206Z,44.87
2019-01-24T19:27:07.905Z,44.13
2019-01-24T19:29:37.557Z,50.07
2019-01-24T19:32:06.923Z,49.30
2019-01-24T19:34:36.646Z,44.07
2019-01-24T19:37:06.065Z,48.57
2019-01-24T19:39:35.464Z,47.53
2019-01-24T19:42:05.187Z,60.80
2019-01-24T19:44:34.558Z,50.43
2019-01-24T19:47:04.161Z,49.20
2019-01-24T19:49:33.466Z,45.87
2019-01-24T19:52:03.464Z,45.57
2019-01-24T19:54:32.861Z,47.13
2019-01-24T19:57:02.542Z,43.97
2019-01-24T19:59:31.805Z,45.20
2019-01-24T20:02:01.105Z,44.67
2019-01-24T20:04:30.804Z,48.37
2019-01-24T20:07:06.209Z,47.03
2019-01-24T20:09:38.535Z,45.40
2019-01-24T20:12:07.928Z,40.57
2019-01-24T20:14:37.216Z,43.13
2019-01-24T20:17:06.485Z,43.23
2019-01-24T20:19:35.913Z,42.80
2019-01-24T20:22:08.176Z,44.23
2019-01-24T20:24:37.878Z,44.57
2019-01-24T20:27:07.281Z,44.33
2019-01-24T20:29:39.487Z,42.50
2019-01-24T20:32:10.689Z,43.33
2019-01-24T20:34:40.319Z,43.57
2019-01-24T20:37:13.413Z,42.77
2019-01-24T20:39:42.796Z,42.50
2019-01-24T20:42:12.482Z,40.80
2019-01-24T20:44:41.904Z,43.80
2019-01-24T20:47:11.636Z,47.37
2019-01-24T20:49:40.967Z,44.97
2019-01-24T20:52:10.401Z,51.00
2019-01-24T20:54:39.988Z,44.10
2019-01-24T20:57:09.660Z,47.30
2019-01-24T20:59:38.980Z,48.80
2019-01-24T21:02:08.607Z,46.93
2019-01-24T21:04:38.527Z,42.93
2019-01-24T21:07:08.009Z,44.23
2019-01-24T21:09:37.364Z,45.90
2019-01-24T21:12:06.814Z,44.07
2019-01-24T21:14:38.143Z,41.30
2019-01-24T21:17:07.603Z,44.00
2019-01-24T21:19:37.301Z,44.90
2019-01-24T21:22:07.324Z,43.67
2019-01-24T21:24:36.917Z,43.80
2019-01-24T21:27:06.610Z,43.40
2019-01-24T21:29:36.097Z,43.63
2019-01-24T21:32:05.466Z,43.67
2019-01-24T21:34:34.803Z,43.43
2019-01-24T21:37:04.766Z,43.10
2019-01-24T21:39:36.820Z,44.57
2019-01-24T21:42:06.323Z,42.27
2019-01-24T21:44:37.149Z,43.77
2019-01-24T21:47:06.688Z,45.23
2019-01-24T21:49:38.834Z,43.10
2019-01-24T21:52:08.280Z,44.10
2019-01-24T21:54:39.450Z,43.67
2019-01-24T21:57:08.941Z,44.80
2019-01-24T21:59:38.349Z,45.97
2019-01-24T22:02:07.976Z,42.47
2019-01-24T22:04:37.466Z,41.73
2019-01-24T22:07:07.072Z,45.10
2019-01-24T22:09:36.532Z,44.83
2019-01-24T22:12:06.393Z,43.07
2019-01-24T22:14:36.088Z,43.77
2019-01-24T22:17:05.726Z,44.13
2019-01-24T22:19:35.128Z,45.03
2019-01-24T22:22:04.705Z,43.67
2019-01-24T22:24:34.368Z,42.67
2019-01-24T22:27:03.691Z,42.80
2019-01-24T22:29:33.356Z,44.73
2019-01-24T22:32:02.792Z,44.70
2019-01-24T22:34:32.103Z,43.37
2019-01-24T22:37:02.260Z,45.10
2019-01-24T22:39:36.570Z,43.00
2019-01-24T22:42:02.599Z,43.97
2019-01-24T22:44:32.246Z,42.73
2019-01-24T22:47:01.707Z,43.50
2019-01-24T22:49:31.389Z,44.27
2019-01-24T22:52:00.795Z,43.13
2019-01-24T22:54:30.147Z,44.23
2019-01-24T22:56:59.771Z,44.83
2019-01-24T22:59:29.109Z,43.23
2019-01-24T23:02:25.424Z,44.47
2019-01-24T23:04:54.815Z,43.73
2019-01-24T23:07:24.202Z,44.20
2019-01-24T23:09:53.684Z,46.07
2019-01-24T23:12:23.035Z,43.57
2019-01-24T23:14:52.452Z,44.93
2019-01-24T23:17:22.160Z,43.27
2019-01-24T23:19:51.571Z,43.33
2019-01-24T23:22:20.899Z,42.60
2019-01-24T23:24:50.341Z,43.63
2019-01-24T23:27:19.721Z,43.33
2019-01-24T23:29:49.187Z,43.07
2019-01-24T23:32:18.877Z,45.43
2019-01-24T23:34:48.579Z,44.10
2019-01-24T23:37:17.967Z,44.60
2019-01-24T23:39:51.698Z,45.17
2019-01-24T23:42:18.933Z,43.50
2019-01-24T23:44:48.314Z,43.07
2019-01-24T23:47:17.733Z,44.47
2019-01-24T23:49:47.125Z,43.80
2019-01-24T23:52:16.435Z,43.80
2019-01-24T23:54:46.154Z,45.00
2019-01-24T23:57:15.567Z,43.60
2019-01-24T23:59:45.227Z,44.20
